Kalama, Washington
Current Conditions -  °F | °C
As of 12:15 AM on Sunday 26 Oct 2014 (Local Time) from KKLS Reporting Station
Broken Clouds Broken Clouds  
Wind Chill: 11°   Ceiling: 5500
Heat Index: 11°   Visibility: 10mi
Dew Point:   Wind: 9mph
Humidity: 82%   Direction: 160°SSE
Pressure: 29.9"   Gusts: NA
Location:  46.01°N, 122.84°W
Report Text: KKLS 260715Z AUTO 16008KT 10SM FEW044 BKN055 BKN075 11/08 A2990 RMK AO1
Loading
Personal Weather Stations






























Interactive Weather Map
Tropical Storm Tracking
New forecast layout! Learn more

10-Day Weather Forecast

Advertisements
Track Severe Weather on mobile